createdAt,value
2023-05-17T00:01:02.562Z,8.1
2023-05-17T00:06:02.557Z,7.9
2023-05-17T00:11:02.548Z,7.8
2023-05-17T00:16:02.552Z,7.7
2023-05-17T00:21:02.734Z,7.6
2023-05-17T00:26:02.708Z,7.3
2023-05-17T00:31:02.561Z,7.3
2023-05-17T00:36:02.510Z,7.3
2023-05-17T00:41:02.517Z,7.3
2023-05-17T00:46:02.596Z,7.1
2023-05-17T00:51:02.556Z,6.9
2023-05-17T00:56:02.529Z,6.8
2023-05-17T01:01:02.597Z,6.6
2023-05-17T01:06:02.555Z,6.4
2023-05-17T01:11:02.571Z,6.3
2023-05-17T01:16:02.526Z,6.1
2023-05-17T01:21:02.530Z,6.1
2023-05-17T01:26:02.648Z,6
2023-05-17T01:31:02.571Z,6.2
2023-05-17T01:36:02.531Z,6.3
2023-05-17T01:41:02.533Z,6.4
2023-05-17T01:46:02.739Z,6.3
2023-05-17T01:51:02.587Z,6.4
2023-05-17T01:56:02.632Z,6.4
2023-05-17T02:01:02.596Z,6.4
2023-05-17T02:06:02.555Z,6.3
2023-05-17T02:11:02.539Z,6.1
2023-05-17T02:16:02.563Z,5.9
2023-05-17T02:21:02.580Z,5.9
2023-05-17T02:26:02.759Z,5.9
2023-05-17T02:31:02.532Z,5.9
2023-05-17T02:36:02.594Z,5.8
2023-05-17T02:41:02.551Z,5.8
2023-05-17T02:46:02.530Z,5.8
2023-05-17T02:51:02.751Z,5.6
2023-05-17T02:56:02.584Z,5.4
2023-05-17T03:01:02.557Z,5.3
2023-05-17T03:06:02.557Z,5.1
2023-05-17T03:11:02.582Z,5.3
2023-05-17T03:16:02.526Z,5.3
2023-05-17T03:21:02.636Z,5.3
2023-05-17T03:26:02.576Z,5.2
2023-05-17T03:31:02.588Z,5.3
2023-05-17T03:36:02.554Z,5.2
2023-05-17T03:41:02.545Z,5.1
2023-05-17T03:46:02.556Z,5.2
2023-05-17T03:51:02.665Z,5.4
2023-05-17T03:56:02.571Z,5.5
2023-05-17T04:01:02.762Z,5.6
2023-05-17T04:06:02.768Z,5.6
2023-05-17T04:11:02.597Z,5.7
2023-05-17T04:16:02.639Z,5.8
2023-05-17T04:21:02.559Z,6
2023-05-17T04:26:02.634Z,6.1
2023-05-17T04:31:02.604Z,6.1
2023-05-17T04:36:02.651Z,6.3
2023-05-17T04:41:02.603Z,6.6
2023-05-17T04:46:02.678Z,6.7
2023-05-17T04:51:02.591Z,7
2023-05-17T04:56:02.678Z,7.1
2023-05-17T05:01:02.788Z,7.3
2023-05-17T05:06:02.550Z,7.5
2023-05-17T05:11:02.559Z,7.7
2023-05-17T05:16:02.639Z,7.8
2023-05-17T05:21:02.560Z,7.8
2023-05-17T05:26:02.688Z,8
2023-05-17T05:31:02.568Z,8.1
2023-05-17T05:36:02.760Z,8.1
2023-05-17T05:41:02.850Z,8.4
2023-05-17T05:46:02.771Z,8.4
2023-05-17T05:51:02.586Z,8.4
2023-05-17T05:56:02.568Z,8.6
2023-05-17T06:01:04.714Z,8.8
2023-05-17T06:06:02.710Z,8.8
2023-05-17T06:11:02.612Z,8.9
2023-05-17T06:16:02.940Z,9.1
2023-05-17T06:21:02.798Z,9.1
2023-05-17T06:26:02.650Z,9.1
2023-05-17T06:31:02.592Z,9.3
2023-05-17T06:41:02.573Z,9.3
2023-05-17T06:46:02.663Z,9.2
2023-05-17T06:51:02.676Z,9.4
2023-05-17T06:56:02.598Z,9.7
2023-05-17T07:01:02.601Z,9.7
2023-05-17T07:06:02.775Z,9.9
2023-05-17T07:11:02.537Z,9.8
2023-05-17T07:16:02.593Z,10.1
2023-05-17T07:21:02.682Z,10.4
2023-05-17T07:26:02.618Z,10.4
2023-05-17T07:31:02.613Z,10.5
2023-05-17T07:36:02.835Z,10.5
2023-05-17T07:41:02.599Z,11.1
2023-05-17T07:46:02.810Z,11.1
2023-05-17T07:51:02.654Z,11.7
2023-05-17T07:56:02.681Z,11
2023-05-17T08:01:02.635Z,11.4
2023-05-17T08:06:02.647Z,11.9
2023-05-17T08:11:02.612Z,11.7
2023-05-17T08:16:12.501Z,11.6
2023-05-17T08:21:02.799Z,11.5
2023-05-17T08:26:02.640Z,11.9
2023-05-17T08:31:02.613Z,11.6
2023-05-17T08:36:02.603Z,11.8
2023-05-17T08:41:02.800Z,11.6
2023-05-17T08:46:02.612Z,11.9
2023-05-17T08:51:02.656Z,11.8
2023-05-17T08:56:02.725Z,11.6
2023-05-17T09:01:02.640Z,12
2023-05-17T09:06:02.724Z,11.9
2023-05-17T09:11:02.616Z,11.5
2023-05-17T09:16:02.802Z,11.9
2023-05-17T09:21:02.621Z,12.1
2023-05-17T09:26:02.720Z,12.1
2023-05-17T09:31:02.806Z,12.1
2023-05-17T09:36:02.593Z,11.9
2023-05-17T09:41:02.799Z,11.9
2023-05-17T09:46:02.660Z,11.8
2023-05-17T09:51:02.673Z,12.1
2023-05-17T09:56:02.650Z,12.5
2023-05-17T10:01:02.573Z,12.1
2023-05-17T10:06:02.924Z,12.8
2023-05-17T10:11:02.640Z,12.7
2023-05-17T10:16:02.645Z,12.1
2023-05-17T10:21:02.809Z,12.1
2023-05-17T10:26:02.870Z,12.1
2023-05-17T10:31:02.651Z,12
2023-05-17T10:36:02.659Z,12.3
2023-05-17T10:41:02.659Z,12.3
2023-05-17T10:46:02.624Z,12.8
2023-05-17T10:51:02.642Z,12.7
2023-05-17T10:56:02.583Z,12.8
2023-05-17T11:01:02.632Z,12.3
2023-05-17T11:06:03.618Z,12
2023-05-17T11:11:02.606Z,12.3
2023-05-17T11:16:02.688Z,12.4
2023-05-17T11:21:02.753Z,12.5
2023-05-17T11:26:09.242Z,12.5
2023-05-17T11:31:02.643Z,12.1
2023-05-17T11:36:02.657Z,12
2023-05-17T11:41:03.549Z,12.2
2023-05-17T11:46:02.631Z,12
2023-05-17T11:51:02.744Z,12.1
2023-05-17T11:56:03.167Z,11.9
2023-05-17T12:01:02.695Z,12.1
2023-05-17T12:06:02.690Z,12.1
2023-05-17T12:11:02.651Z,12.1
2023-05-17T12:16:02.678Z,12.3
2023-05-17T12:21:02.847Z,12.3
2023-05-17T12:26:02.778Z,11.9
2023-05-17T12:31:02.863Z,11.8
2023-05-17T12:36:02.727Z,11.8
2023-05-17T12:41:02.674Z,11.7
2023-05-17T12:46:03.805Z,11.8
2023-05-17T12:51:02.826Z,11.8
2023-05-17T12:56:02.656Z,11.9
2023-05-17T13:01:02.647Z,12.2
2023-05-17T13:06:02.821Z,12.4
2023-05-17T13:11:02.685Z,12.4
2023-05-17T13:16:02.682Z,12.4
2023-05-17T13:21:02.651Z,12.3
2023-05-17T13:26:02.677Z,12.3
2023-05-17T13:31:02.632Z,12.1
2023-05-17T13:36:02.685Z,12.1
2023-05-17T13:41:02.683Z,12.3
2023-05-17T13:46:02.963Z,12.3
2023-05-17T13:51:02.645Z,12.3
2023-05-17T13:56:02.670Z,12.3
2023-05-17T14:01:02.695Z,12.6
2023-05-17T14:06:02.718Z,12.7
2023-05-17T14:11:02.828Z,12.5
2023-05-17T14:21:02.684Z,12.1
2023-05-17T14:26:02.834Z,12.3
2023-05-17T14:31:02.653Z,12.9
2023-05-17T14:36:02.849Z,13
2023-05-17T14:41:02.897Z,13.6
2023-05-17T14:46:02.677Z,14.3
2023-05-17T14:51:03.060Z,13.6
2023-05-17T14:56:02.681Z,13.4
2023-05-17T15:01:02.711Z,12.9
2023-05-17T15:06:05.299Z,13.1
2023-05-17T15:11:03.000Z,13.9
2023-05-17T15:16:02.704Z,14.1
2023-05-17T15:21:02.737Z,14.6
2023-05-17T15:26:02.847Z,14.2
2023-05-17T15:31:02.860Z,13.6
2023-05-17T15:36:02.666Z,13.3
2023-05-17T15:41:02.709Z,13.6
2023-05-17T15:46:02.757Z,13.9
2023-05-17T15:51:02.649Z,14.3
2023-05-17T15:56:02.718Z,14
2023-05-17T16:01:02.709Z,14
2023-05-17T16:06:02.864Z,13.9
2023-05-17T16:11:02.938Z,13.9
2023-05-17T16:16:02.662Z,13.6
2023-05-17T16:21:02.757Z,14.5
2023-05-17T16:26:02.744Z,14.6
2023-05-17T16:31:02.780Z,14.3
2023-05-17T16:36:03.058Z,14.4
2023-05-17T16:41:02.893Z,14
2023-05-17T16:46:02.780Z,14
2023-05-17T16:51:02.705Z,14
2023-05-17T16:56:02.712Z,13.6
2023-05-17T17:01:02.754Z,13.6
2023-05-17T17:06:03.093Z,13.6
2023-05-17T17:11:02.721Z,13.3
2023-05-17T17:16:02.741Z,13.3
2023-05-17T17:21:02.775Z,13.4
2023-05-17T17:26:02.741Z,13.4
2023-05-17T17:31:02.857Z,13.4
2023-05-17T17:36:02.674Z,13.3
2023-05-17T17:41:02.722Z,13
2023-05-17T17:46:02.745Z,12.9
2023-05-17T17:51:02.711Z,12.8
2023-05-17T17:56:02.731Z,12.8
2023-05-17T18:01:02.754Z,12.8
2023-05-17T18:06:02.922Z,12.6
2023-05-17T18:11:02.769Z,12.5
2023-05-17T18:16:02.729Z,12.4
2023-05-17T18:21:02.784Z,12.3
2023-05-17T18:26:02.704Z,12.1
2023-05-17T18:31:02.925Z,11.9
2023-05-17T18:36:02.778Z,11.8
2023-05-17T18:41:02.695Z,11.7
2023-05-17T18:46:02.742Z,11.5
2023-05-17T18:51:02.977Z,11.3
2023-05-17T18:56:02.771Z,11.2
2023-05-17T19:01:02.819Z,11
2023-05-17T19:06:02.761Z,10.9
2023-05-17T19:11:02.910Z,10.6
2023-05-17T19:16:02.790Z,10.4
2023-05-17T19:21:02.904Z,10.4
2023-05-17T19:26:02.738Z,10.2
2023-05-17T19:31:02.760Z,10.1
2023-05-17T19:36:02.742Z,10.1
2023-05-17T19:41:02.964Z,9.9
2023-05-17T19:46:02.743Z,10.1
2023-05-17T19:51:02.726Z,10.1
2023-05-17T19:56:02.792Z,10.1
2023-05-17T20:01:02.776Z,10.2
2023-05-17T20:06:02.965Z,10.2
2023-05-17T20:11:02.721Z,10.3
2023-05-17T20:16:02.721Z,10.3
2023-05-17T20:21:02.711Z,10.4
2023-05-17T20:26:02.664Z,10.4
2023-05-17T20:31:02.724Z,10.4
2023-05-17T20:36:02.763Z,10.3
2023-05-17T20:41:02.726Z,10.3
2023-05-17T20:46:02.756Z,10.2
2023-05-17T20:51:02.761Z,10.3
2023-05-17T20:56:02.703Z,10.3
2023-05-17T21:01:02.815Z,10.2
2023-05-17T21:06:02.759Z,10.2
2023-05-17T21:11:02.732Z,10.3
2023-05-17T21:16:02.779Z,10.3
2023-05-17T21:21:02.773Z,10.3
2023-05-17T21:26:02.811Z,10.1
2023-05-17T21:31:02.782Z,9.9
2023-05-17T21:36:02.784Z,9.8
2023-05-17T21:41:02.935Z,9.7
2023-05-17T21:46:02.890Z,9.5
2023-05-17T21:51:02.923Z,9.4
2023-05-17T21:56:03.322Z,9.3
2023-05-17T22:01:02.743Z,9.1
2023-05-17T22:06:02.754Z,9
2023-05-17T22:11:02.757Z,8.9
2023-05-17T22:16:02.774Z,8.9
2023-05-17T22:21:02.769Z,8.8
2023-05-17T22:26:02.743Z,8.6
2023-05-17T22:31:02.766Z,8.6
2023-05-17T22:36:02.749Z,8.4
2023-05-17T22:41:02.976Z,8.3
2023-05-17T22:46:02.789Z,8.2
2023-05-17T22:51:02.802Z,7.9
2023-05-17T22:56:02.763Z,7.8
2023-05-17T23:01:02.800Z,7.7
2023-05-17T23:06:03.178Z,7.6
2023-05-17T23:11:02.961Z,7.4
2023-05-17T23:16:02.750Z,7.3
2023-05-17T23:21:02.700Z,6.9
2023-05-17T23:26:02.731Z,6.9
2023-05-17T23:31:02.814Z,6.7
2023-05-17T23:36:02.780Z,6.7
2023-05-17T23:41:02.906Z,6.7
2023-05-17T23:46:02.956Z,6.5
2023-05-17T23:51:03.016Z,6.6
2023-05-17T23:56:02.804Z,6.6
